Time;durP1;ratioP1;P1;durP2;ratioP2;P2;SDS_P1;SDS_P2;PMS_P1;PMS_P2;Temp;Humidity;BMP_temperature;BMP_pressure;BME280_temperature;BME280_humidity;BME280_pressure;Samples;Min_cycle;Max_cycle;Signal;HPM_P1;HPM_P2
2021/12/03 00:01:32;;;;;;;;;16.00;12.50;;;;;6.19;60.50;101390.72;5021230;28;45308;-84
2021/12/03 00:03:58;;;;;;;;;25.25;21.50;;;;;6.21;60.04;101393.31;5020840;28;45449;-83
2021/12/03 00:06:23;;;;;;;;;24.25;18.50;;;;;6.17;59.91;101387.25;5021122;28;45469;-83
2021/12/03 00:08:49;;;;;;;;;27.25;24.00;;;;;6.15;60.13;101391.63;5006381;28;48047;-83
2021/12/03 00:11:15;;;;;;;;;27.00;22.50;;;;;6.12;59.79;101381.19;5036616;28;45264;-83
2021/12/03 00:13:42;;;;;;;;;20.50;20.50;;;;;6.08;60.04;101382.91;5021244;28;45241;-83
2021/12/03 00:16:09;;;;;;;;;26.75;23.25;;;;;6.05;60.17;101391.59;5019903;28;45446;-83
2021/12/03 00:18:34;;;;;;;;;24.50;23.00;;;;;6.02;60.40;101386.41;5034432;28;47310;-83
2021/12/03 00:21:03;;;;;;;;;28.25;27.00;;;;;6.02;60.56;101393.34;5012888;28;45292;-83
2021/12/03 00:23:32;;;;;;;;;29.75;24.50;;;;;5.98;60.66;101397.69;5020342;28;45419;-83
2021/12/03 00:26:00;;;;;;;;;32.50;22.50;;;;;5.89;60.27;101385.56;5021076;28;45393;-83
2021/12/03 00:28:27;;;;;;;;;29.25;24.50;;;;;5.89;60.35;101396.00;5020409;28;45737;-83
2021/12/03 00:30:52;;;;;;;;;25.75;23.00;;;;;5.87;60.42;101389.94;5015064;28;45743;-82
2021/12/03 00:33:18;;;;;;;;;28.50;27.00;;;;;5.83;60.77;101388.16;5010468;28;45324;-82
2021/12/03 00:35:43;;;;;;;;;29.25;24.50;;;;;5.81;61.22;101382.09;5019793;28;45413;-82
2021/12/03 00:38:09;;;;;;;;;23.50;22.50;;;;;5.81;60.92;101389.91;5020551;28;46512;-82
2021/12/03 00:40:39;;;;;;;;;27.75;23.75;;;;;5.79;60.81;101392.53;5020729;28;45343;-83
2021/12/03 00:43:05;;;;;;;;;26.00;21.75;;;;;5.79;60.93;101395.16;5015417;28;45360;-81
2021/12/03 00:45:32;;;;;;;;;23.75;21.75;;;;;5.74;60.86;101389.06;5008286;28;45465;-83
2021/12/03 00:47:58;;;;;;;;;22.50;21.00;;;;;5.68;61.13;101384.72;5020445;28;46518;-81
2021/12/03 00:50:25;;;;;;;;;30.25;20.25;;;;;5.71;61.24;101391.69;5010319;28;45835;-81
2021/12/03 00:52:52;;;;;;;;;22.50;19.25;;;;;5.68;61.29;101396.94;5020292;28;45470;-81
2021/12/03 00:55:18;;;;;;;;;21.25;17.00;;;;;5.67;61.06;101396.06;5015251;28;45280;-81
2021/12/03 00:57:43;;;;;;;;;20.00;16.50;;;;;5.65;61.38;101404.75;5019651;28;45624;-81
2021/12/03 01:00:14;;;;;;;;;16.25;12.50;;;;;5.63;61.27;101409.94;5010090;28;45261;-81
2021/12/03 01:02:40;;;;;;;;;16.25;14.75;;;;;5.63;61.33;101416.03;5020559;28;45429;-81
2021/12/03 01:05:06;;;;;;;;;15.75;15.00;;;;;5.63;61.29;101415.16;5007123;28;45398;-81
2021/12/03 01:07:31;;;;;;;;;18.00;13.50;;;;;5.58;61.34;101415.16;5020167;28;46556;-79
2021/12/03 01:09:57;;;;;;;;;17.00;16.25;;;;;5.58;61.90;101420.38;5015471;28;45377;-79
2021/12/03 01:12:22;;;;;;;;;16.75;15.50;;;;;5.57;61.63;101421.28;5010188;28;45551;-79
2021/12/03 01:14:48;;;;;;;;;19.50;15.00;;;;;5.58;61.75;101419.53;5007066;28;45497;-80
2021/12/03 01:17:14;;;;;;;;;15.75;15.25;;;;;5.56;62.14;101422.13;5020231;28;46314;-81
2021/12/03 01:19:41;;;;;;;;;20.25;15.50;;;;;5.57;61.96;101428.22;5019231;28;46002;-83
2021/12/03 01:22:06;;;;;;;;;16.00;11.50;;;;;5.56;61.88;101432.56;5014647;28;45248;-83
2021/12/03 01:24:32;;;;;;;;;10.50;10.50;;;;;5.59;62.32;101429.09;5009236;28;45217;-83
2021/12/03 01:26:58;;;;;;;;;14.00;13.00;;;;;5.62;62.65;101434.31;5018482;28;46591;-83
2021/12/03 01:29:24;;;;;;;;;15.50;14.75;;;;;5.65;62.14;101430.84;5018676;28;45426;-83
2021/12/03 01:31:51;;;;;;;;;16.75;16.75;;;;;5.62;62.30;101429.97;5016810;28;45364;-83
2021/12/03 01:34:17;;;;;;;;;17.25;14.75;;;;;5.65;62.00;101433.44;5019287;28;45514;-83
2021/12/03 01:36:43;;;;;;;;;20.00;16.00;;;;;5.66;62.38;101432.56;5014216;28;48340;-83
2021/12/03 01:39:11;;;;;;;;;17.25;13.25;;;;;5.65;62.44;101434.31;5019299;28;45186;-83
2021/12/03 01:41:37;;;;;;;;;17.25;15.25;;;;;5.65;62.19;101431.72;5018585;28;45224;-82
2021/12/03 01:44:03;;;;;;;;;20.75;17.00;;;;;5.64;62.16;101427.34;5019580;28;45222;-82
2021/12/03 01:46:31;;;;;;;;;11.75;11.50;;;;;5.65;62.29;101429.09;5034842;28;47357;-83
2021/12/03 01:48:57;;;;;;;;;18.00;14.75;;;;;5.66;62.15;101433.44;5018116;28;45433;-86
2021/12/03 01:51:23;;;;;;;;;11.00;11.00;;;;;5.65;62.38;101430.84;5024226;28;45383;-81
2021/12/03 01:53:49;;;;;;;;;18.25;16.00;;;;;5.67;62.22;101439.53;5006513;28;45249;-81
2021/12/03 01:56:16;;;;;;;;;18.50;14.25;;;;;5.70;62.09;101449.97;5018724;28;46283;-81
2021/12/03 01:58:44;;;;;;;;;14.00;14.00;;;;;5.69;62.08;101445.59;5019422;28;45793;-78
2021/12/03 02:01:14;;;;;;;;;15.25;15.25;;;;;5.71;62.28;101452.56;5011676;28;45542;-78
2021/12/03 02:03:42;;;;;;;;;17.50;15.25;;;;;5.70;62.10;101456.06;5007707;28;45403;-82
2021/12/03 02:06:10;;;;;;;;;15.75;14.00;;;;;5.67;62.23;101450.84;5017525;28;47473;-84
2021/12/03 02:08:36;;;;;;;;;15.25;14.75;;;;;5.71;62.40;101449.06;5019167;28;45816;-84
2021/12/03 02:11:04;;;;;;;;;16.25;14.00;;;;;5.70;62.21;101453.44;5019696;28;45456;-84
2021/12/03 02:13:30;;;;;;;;;21.00;17.25;;;;;5.73;62.37;101449.94;5005491;28;45426;-85
2021/12/03 02:15:56;;;;;;;;;24.75;18.50;;;;;5.76;62.19;101452.53;5009065;28;46432;-85
2021/12/03 02:18:21;;;;;;;;;17.50;16.25;;;;;5.76;62.43;101444.72;5019472;28;45261;-81
2021/12/03 02:20:48;;;;;;;;;16.75;15.00;;;;;5.79;62.68;101443.84;5019484;28;45502;-85
2021/12/03 02:23:15;;;;;;;;;16.50;16.00;;;;;5.80;62.52;101435.16;5014476;28;46354;-85
2021/12/03 02:25:40;;;;;;;;;16.75;15.50;;;;;5.83;61.84;101438.63;5019370;28;46326;-85
2021/12/03 02:28:06;;;;;;;;;22.75;20.75;;;;;5.84;62.55;101445.59;5005827;28;45378;-85
2021/12/03 02:30:32;;;;;;;;;14.50;14.00;;;;;5.83;62.10;101441.22;5011565;28;45333;-87
2021/12/03 02:32:57;;;;;;;;;18.50;17.00;;;;;5.86;61.89;101435.13;5017521;28;45529;-86
2021/12/03 02:35:24;;;;;;;;;18.25;17.00;;;;;5.88;62.32;101438.59;5018090;28;45420;-87
2021/12/03 02:37:50;;;;;;;;;23.50;19.50;;;;;5.89;62.07;101440.34;5018438;28;45819;-86
2021/12/03 02:40:18;;;;;;;;;16.25;14.25;;;;;5.94;62.15;101448.19;5020339;28;45348;-86
2021/12/03 02:42:44;;;;;;;;;20.75;17.25;;;;;5.92;62.40;101435.16;5022524;28;45290;-85
2021/12/03 02:45:11;;;;;;;;;15.00;15.00;;;;;5.96;61.66;101444.69;5016303;28;47110;-87
2021/12/03 02:47:38;;;;;;;;;17.00;15.25;;;;;5.95;62.22;101434.28;5019055;28;46029;-87
2021/12/03 02:50:04;;;;;;;;;17.00;17.00;;;;;5.97;62.23;101433.38;5015094;28;45237;-87
2021/12/03 02:52:30;;;;;;;;;21.75;19.25;;;;;6.00;62.39;101436.88;5008799;28;45351;-87
2021/12/03 02:54:55;;;;;;;;;18.00;16.00;;;;;6.01;62.40;101436.84;5022194;28;45589;-87
2021/12/03 02:57:21;;;;;;;;;15.75;15.00;;;;;6.03;62.07;101434.22;5022245;28;45413;-87
2021/12/03 02:59:46;;;;;;;;;19.50;13.25;;;;;6.02;62.39;101425.56;5019519;28;45223;-87
2021/12/03 03:02:12;;;;;;;;;16.00;16.00;;;;;6.01;62.18;101420.31;5020004;28;45494;-87
2021/12/03 03:04:37;;;;;;;;;21.00;17.50;;;;;6.03;61.74;101415.94;5009430;28;45229;-86
2021/12/03 03:07:03;;;;;;;;;15.50;14.25;;;;;6.06;62.48;101410.72;5022197;28;45410;-85
2021/12/03 03:09:31;;;;;;;;;22.00;15.50;;;;;6.05;62.34;101399.41;5022142;28;45411;-86
2021/12/03 03:11:57;;;;;;;;;12.75;12.75;;;;;6.05;61.74;101399.41;5021273;28;45423;-83
2021/12/03 03:14:23;;;;;;;;;16.25;15.00;;;;;6.08;61.89;101401.19;5020955;28;45329;-83
2021/12/03 03:16:51;;;;;;;;;15.50;15.50;;;;;6.11;61.83;101409.00;5010292;28;45248;-84
2021/12/03 03:19:20;;;;;;;;;22.00;18.00;;;;;6.11;61.74;101408.13;5022088;28;45233;-85
2021/12/03 03:21:47;;;;;;;;;16.00;13.25;;;;;6.13;61.40;101398.56;5022058;28;45517;-86
2021/12/03 03:24:14;;;;;;;;;16.50;15.00;;;;;6.10;61.64;101393.38;5021658;28;46543;-86
2021/12/03 03:26:42;;;;;;;;;17.50;12.75;;;;;6.15;61.89;101392.47;5021522;28;45345;-81
2021/12/03 03:29:10;;;;;;;;;10.75;10.50;;;;;6.15;61.81;101389.00;5022348;28;45474;-94
2021/12/03 03:31:37;;;;;;;;;13.75;11.75;;;;;6.18;61.71;101405.50;5014986;28;47335;-94
2021/12/03 03:34:04;;;;;;;;;12.50;12.50;;;;;6.19;61.49;101402.03;5012854;28;48343;-94
2021/12/03 03:36:35;;;;;;;;;12.75;11.00;;;;;6.20;61.31;101397.66;5021325;28;46020;-94
2021/12/03 03:39:03;;;;;;;;;15.50;11.75;;;;;6.20;61.72;101397.66;5031847;28;45378;-89
2021/12/03 03:41:28;;;;;;;;;12.75;11.75;;;;;6.21;61.57;101394.19;5020242;28;45459;-87
2021/12/03 03:43:54;;;;;;;;;12.50;11.00;;;;;6.22;61.16;101395.94;5010011;28;45296;-88
2021/12/03 03:46:19;;;;;;;;;14.75;11.50;;;;;6.24;61.46;101394.19;5021597;28;45284;-88
2021/12/03 03:48:44;;;;;;;;;12.00;10.00;;;;;6.25;61.53;101397.63;5021906;28;45289;-91
2021/12/03 03:51:11;;;;;;;;;16.25;11.75;;;;;6.29;61.11;101391.53;5020302;28;46034;-91
2021/12/03 03:53:38;;;;;;;;;10.75;10.75;;;;;6.26;61.53;101392.44;5020456;28;45533;-88
2021/12/03 03:56:05;;;;;;;;;13.25;10.50;;;;;6.29;61.29;101397.66;5003632;28;45952;-88
2021/12/03 03:58:30;;;;;;;;;13.50;10.75;;;;;6.29;61.94;101391.53;5021378;28;45382;-88
2021/12/03 04:00:56;;;;;;;;;13.25;13.00;;;;;6.29;61.19;101388.94;5016296;28;45316;-88
2021/12/03 04:03:30;;;;;;;;;13.50;12.25;;;;;6.32;61.20;101393.28;5013042;28;46218;-88
2021/12/03 04:05:55;;;;;;;;;13.25;12.50;;;;;6.32;61.42;101398.50;5036069;28;45468;-88
2021/12/03 04:08:22;;;;;;;;;12.75;12.75;;;;;6.33;61.36;101392.38;5021350;28;45257;-87
2021/12/03 04:10:48;;;;;;;;;12.25;12.25;;;;;6.30;61.33;101390.66;5019470;28;45552;-88
2021/12/03 04:13:13;;;;;;;;;17.50;12.75;;;;;6.29;61.48;101383.72;5021158;28;45752;-87
2021/12/03 04:15:39;;;;;;;;;16.25;11.75;;;;;6.26;60.96;101381.09;5010701;28;45272;-89
2021/12/03 04:18:04;;;;;;;;;9.50;6.25;;;;;6.23;60.77;101382.00;5018421;28;45831;-88
2021/12/03 04:20:30;;;;;;;;;19.50;15.25;;;;;6.21;61.29;101368.06;5021149;28;45213;-89
2021/12/03 04:22:55;;;;;;;;;15.50;12.00;;;;;6.22;61.15;101364.59;5020712;28;45321;-89
2021/12/03 04:25:22;;;;;;;;;13.50;10.75;;;;;6.23;61.05;101368.94;5021171;28;45390;-88
2021/12/03 04:27:48;;;;;;;;;13.25;11.50;;;;;6.22;61.20;101382.88;5011500;28;45437;-89
2021/12/03 04:30:28;;;;;;;;;12.00;10.75;;;;;6.22;61.07;101382.88;5011753;28;45297;-89
2021/12/03 04:32:56;;;;;;;;;12.25;12.25;;;;;6.17;61.13;101388.09;5018373;28;46314;-88
2021/12/03 04:35:23;;;;;;;;;11.75;11.75;;;;;6.23;61.32;101396.78;5014478;28;45372;-88
2021/12/03 04:37:48;;;;;;;;;11.25;10.00;;;;;6.17;61.33;101388.09;5013342;28;45473;-89
2021/12/03 04:40:15;;;;;;;;;14.25;12.00;;;;;6.19;60.85;101395.94;5020314;28;45472;-88
2021/12/03 04:42:41;;;;;;;;;12.00;11.25;;;;;6.19;61.27;101377.66;5019032;28;46783;-88
2021/12/03 04:45:10;;;;;;;;;15.75;11.25;;;;;6.23;61.16;101376.75;5010012;28;45756;-87
2021/12/03 04:47:36;;;;;;;;;15.50;12.25;;;;;6.21;61.09;101380.25;5018995;28;45425;-87
2021/12/03 04:50:05;;;;;;;;;10.50;8.25;;;;;6.21;60.82;101377.66;5016220;28;47163;-88
2021/12/03 04:52:30;;;;;;;;;15.25;11.00;;;;;6.17;61.02;101376.81;5005501;28;47235;-88
2021/12/03 04:54:56;;;;;;;;;10.25;9.75;;;;;6.14;60.68;101372.47;5020499;28;45394;-89
2021/12/03 04:57:21;;;;;;;;;9.25;8.25;;;;;6.12;60.85;101369.00;5020561;28;45416;-89
2021/12/03 04:59:47;;;;;;;;;9.25;9.25;;;;;6.16;61.36;101375.94;5011156;28;45449;-90
2021/12/03 05:02:12;;;;;;;;;16.00;10.75;;;;;6.12;61.15;101378.56;5010684;28;48142;-88
2021/12/03 05:04:39;;;;;;;;;10.75;10.25;;;;;6.14;61.40;101387.25;5018988;28;45307;-89
2021/12/03 05:09:34;;;;;;;;;15.25;13.25;;;;;6.11;60.83;101374.22;5019526;28;45473;-89
2021/12/03 05:12:00;;;;;;;;;4.00;2.25;;;;;6.17;61.28;101376.81;5020406;28;46454;-89
2021/12/03 05:14:27;;;;;;;;;16.25;15.00;;;;;6.16;61.09;101375.94;5018624;28;45379;-89
2021/12/03 05:16:52;;;;;;;;;17.00;14.25;;;;;6.12;61.13;101352.47;5020311;28;45396;-88
2021/12/03 05:19:18;;;;;;;;;15.25;14.50;;;;;6.14;61.43;101350.72;5015589;28;46391;-88
2021/12/03 05:21:44;;;;;;;;;12.50;12.50;;;;;6.16;60.93;101346.34;5017734;28;47318;-91
2021/12/03 05:24:10;;;;;;;;;14.50;13.50;;;;;6.16;61.13;101346.34;5018928;28;45773;-91
2021/12/03 05:26:38;;;;;;;;;13.00;11.00;;;;;6.15;61.02;101339.41;5005564;28;45460;-85
2021/12/03 05:29:06;;;;;;;;;18.75;15.25;;;;;6.13;61.48;101333.31;5011067;28;46058;-88
2021/12/03 05:31:32;;;;;;;;;13.00;12.50;;;;;6.15;61.37;101342.03;5016087;28;46427;-89
2021/12/03 05:33:58;;;;;;;;;15.75;14.50;;;;;6.16;61.60;101351.56;5018912;28;45457;-89
2021/12/03 05:36:24;;;;;;;;;17.75;14.50;;;;;6.11;60.96;101348.97;5005517;28;45505;-84
2021/12/03 05:38:50;;;;;;;;;14.00;13.00;;;;;6.11;61.17;101346.38;5011856;28;45218;-93
2021/12/03 05:41:15;;;;;;;;;18.00;13.00;;;;;6.10;60.94;101338.56;5018918;28;47110;-92
2021/12/03 05:43:41;;;;;;;;;15.25;15.25;;;;;6.12;61.46;101327.22;5019633;28;45221;-92
2021/12/03 05:46:06;;;;;;;;;13.25;11.50;;;;;6.06;60.94;101335.91;5015985;28;45630;-92
2021/12/03 05:48:32;;;;;;;;;15.00;14.25;;;;;6.06;60.96;101338.53;5016252;28;46067;-89
2021/12/03 05:50:57;;;;;;;;;15.00;14.50;;;;;6.06;61.22;101340.25;5026585;28;47553;-88
2021/12/03 05:53:23;;;;;;;;;18.25;13.25;;;;;6.03;61.09;101333.31;5031013;28;45254;-86
2021/12/03 05:55:48;;;;;;;;;11.00;11.00;;;;;6.07;60.70;101335.06;5003641;28;45533;-92
2021/12/03 05:58:16;;;;;;;;;17.25;12.50;;;;;6.05;61.00;101334.16;5016475;28;45320;-87
2021/12/03 06:00:42;;;;;;;;;17.75;15.75;;;;;6.06;61.18;101328.09;5019751;28;46324;-86
2021/12/03 06:03:08;;;;;;;;;15.75;11.75;;;;;6.11;61.31;101324.63;5015044;28;45581;-81
2021/12/03 06:05:34;;;;;;;;;15.75;15.00;;;;;6.08;61.14;101313.31;5018695;28;45240;-81
2021/12/03 06:08:00;;;;;;;;;17.50;14.00;;;;;6.12;61.47;101308.97;5017541;28;45422;-78
2021/12/03 06:10:26;;;;;;;;;16.50;15.75;;;;;6.12;61.52;101300.25;5006279;28;46350;-77
2021/12/03 06:12:52;;;;;;;;;16.25;15.00;;;;;6.12;61.44;101282.88;5014026;28;45323;-77
2021/12/03 06:15:18;;;;;;;;;17.25;17.25;;;;;6.14;61.30;101285.44;5030883;28;45710;-78
2021/12/03 06:17:44;;;;;;;;;14.50;11.25;;;;;6.16;61.66;101301.97;5027810;28;46461;-78
2021/12/03 06:20:10;;;;;;;;;15.75;14.50;;;;;6.17;61.21;101307.16;5007675;28;47406;-78
2021/12/03 06:22:35;;;;;;;;;13.75;11.50;;;;;6.17;61.12;101315.00;5030536;28;45331;-78
2021/12/03 06:25:04;;;;;;;;;16.50;12.75;;;;;6.15;61.35;101308.09;5021295;28;45310;-77
2021/12/03 06:27:30;;;;;;;;;10.50;10.50;;;;;6.15;61.42;101315.91;5021811;28;45461;-78
2021/12/03 06:29:56;;;;;;;;;10.00;10.00;;;;;6.17;61.45;101314.16;5022898;28;46600;-77
2021/12/03 06:32:22;;;;;;;;;10.75;10.75;;;;;6.17;61.26;101317.63;5022877;28;45777;-78
2021/12/03 06:34:47;;;;;;;;;14.50;12.00;;;;;6.20;61.46;101321.94;5019004;28;45285;-78
2021/12/03 06:37:13;;;;;;;;;14.00;11.50;;;;;6.22;61.09;101322.84;5019355;28;45386;-78
2021/12/03 06:39:38;;;;;;;;;16.25;13.50;;;;;6.25;60.97;101317.56;5011965;28;46370;-78
2021/12/03 06:42:04;;;;;;;;;16.25;12.75;;;;;6.27;61.31;101312.38;5012708;28;45404;-78
2021/12/03 06:44:30;;;;;;;;;16.00;13.75;;;;;6.29;60.95;101314.09;5017196;28;45550;-78
2021/12/03 06:46:55;;;;;;;;;12.75;11.50;;;;;6.31;61.18;101306.25;5034724;28;45481;-78
2021/12/03 06:49:22;;;;;;;;;9.00;8.75;;;;;6.33;60.83;101316.66;5020858;28;47205;-78
2021/12/03 06:51:49;;;;;;;;;10.25;10.25;;;;;6.34;60.96;101324.50;5018528;28;45475;-77
2021/12/03 06:54:23;;;;;;;;;11.00;11.00;;;;;6.35;61.24;101320.13;5018351;28;46268;-79
2021/12/03 06:56:51;;;;;;;;;9.50;9.50;;;;;6.34;60.81;101311.47;5015466;28;46491;-79
2021/12/03 06:59:18;;;;;;;;;13.00;9.75;;;;;6.37;61.03;101310.56;5019023;28;47207;-78
2021/12/03 07:01:44;;;;;;;;;18.75;11.25;;;;;6.37;60.71;101310.56;5009774;28;45371;-78
2021/12/03 07:04:10;;;;;;;;;17.00;10.00;;;;;6.39;60.76;101308.81;5012511;28;45501;-78
2021/12/03 07:06:36;;;;;;;;;10.00;10.00;;;;;6.39;60.73;101308.81;5022350;28;45308;-78
2021/12/03 07:09:02;;;;;;;;;10.00;10.00;;;;;6.41;60.79;101312.28;5021804;28;46599;-78
2021/12/03 07:11:28;;;;;;;;;10.00;6.75;;;;;6.36;61.07;101309.69;5014134;28;45435;-78
2021/12/03 07:13:53;;;;;;;;;10.00;9.50;;;;;6.38;60.80;101312.28;5016570;28;45482;-78
2021/12/03 07:16:19;;;;;;;;;11.75;9.00;;;;;6.39;60.99;101314.03;5017894;28;45516;-78
2021/12/03 07:18:44;;;;;;;;;10.25;10.25;;;;;6.40;60.96;101307.91;5022181;28;46113;-78
2021/12/03 07:21:10;;;;;;;;;13.50;10.50;;;;;6.42;61.00;101311.38;5018511;28;45493;-78
2021/12/03 07:23:37;;;;;;;;;14.50;13.50;;;;;6.43;61.05;101302.69;5014834;28;45477;-78
2021/12/03 07:26:02;;;;;;;;;11.25;9.75;;;;;6.45;60.73;101300.06;5020470;28;45414;-78
2021/12/03 07:28:31;;;;;;;;;11.00;8.50;;;;;6.43;60.98;101292.25;5016864;28;47475;-78
2021/12/03 07:30:57;;;;;;;;;11.50;10.75;;;;;6.46;61.28;101292.22;5010944;28;45400;-78
2021/12/03 07:33:23;;;;;;;;;10.00;8.25;;;;;6.49;60.65;101293.94;5014585;28;45271;-78
2021/12/03 07:35:48;;;;;;;;;8.50;8.50;;;;;6.49;60.93;101294.81;5019696;28;47178;-79
2021/12/03 07:38:17;;;;;;;;;17.25;10.50;;;;;6.52;61.01;101300.00;5020738;28;46436;-77
2021/12/03 07:40:43;;;;;;;;;10.25;8.50;;;;;6.52;60.75;101304.34;5019941;28;45784;-77
2021/12/03 07:43:09;;;;;;;;;10.50;9.25;;;;;6.51;60.80;101298.28;5021809;28;45431;-77
2021/12/03 07:45:35;;;;;;;;;6.75;5.50;;;;;6.53;60.75;101306.97;5019922;28;45579;-77
2021/12/03 07:48:00;;;;;;;;;8.00;6.50;;;;;6.53;61.27;101303.50;5017751;28;47421;-76
2021/12/03 07:50:26;;;;;;;;;9.00;9.00;;;;;6.56;61.02;101310.44;5021722;28;45285;-76
2021/12/03 07:52:52;;;;;;;;;10.75;8.75;;;;;6.57;61.11;101297.34;5020561;28;45271;-76
2021/12/03 07:55:17;;;;;;;;;13.25;10.00;;;;;6.61;60.67;101306.06;5017937;28;45303;-76
2021/12/03 07:57:42;;;;;;;;;7.25;6.00;;;;;6.61;60.60;101298.22;5020138;28;46493;-76
2021/12/03 08:00:09;;;;;;;;;9.25;9.25;;;;;6.64;60.70;101293.81;5011492;28;45257;-76
2021/12/03 08:02:34;;;;;;;;;10.00;9.00;;;;;6.68;60.73;101294.69;5030370;28;45497;-77
2021/12/03 08:05:00;;;;;;;;;10.25;9.75;;;;;6.67;60.55;101294.69;5021207;28;45468;-76
2021/12/03 08:07:25;;;;;;;;;9.75;9.25;;;;;6.68;60.81;101286.84;5016818;28;46822;-76
2021/12/03 08:09:51;;;;;;;;;12.50;9.25;;;;;6.69;60.85;101285.09;5019493;28;45249;-77
2021/12/03 08:12:16;;;;;;;;;10.25;9.25;;;;;6.71;60.63;101294.66;5017649;28;45824;-77
2021/12/03 08:14:42;;;;;;;;;5.00;5.00;;;;;6.73;60.86;101294.63;5021642;28;45211;-76
2021/12/03 08:17:07;;;;;;;;;11.25;6.75;;;;;6.75;60.89;101298.97;5021076;28;45600;-77
2021/12/03 08:19:33;;;;;;;;;9.25;9.00;;;;;6.77;60.95;101296.34;5013111;28;45448;-77
2021/12/03 08:21:58;;;;;;;;;7.50;6.00;;;;;6.79;60.76;101293.75;5017734;28;45477;-76
2021/12/03 08:24:24;;;;;;;;;8.00;8.00;;;;;6.80;60.27;101293.72;5016736;28;45819;-77
2021/12/03 08:26:49;;;;;;;;;6.25;6.25;;;;;6.83;60.84;101295.44;5014444;28;45316;-76
2021/12/03 08:29:14;;;;;;;;;12.50;11.00;;;;;6.85;60.07;101291.94;5025205;28;45272;-76
2021/12/03 08:31:40;;;;;;;;;7.25;7.25;;;;;6.86;60.38;101292.81;5013034;28;45504;-78
2021/12/03 08:34:06;;;;;;;;;12.50;9.50;;;;;6.89;60.66;101297.97;5013066;28;45493;-77
2021/12/03 08:36:32;;;;;;;;;9.00;9.00;;;;;6.90;60.69;101291.88;5026533;28;47298;-77
2021/12/03 08:38:57;;;;;;;;;10.50;7.50;;;;;6.92;60.22;101279.66;5016808;28;45589;-77
2021/12/03 08:41:23;;;;;;;;;9.25;8.00;;;;;6.93;60.14;101284.03;5016470;28;45343;-77
2021/12/03 08:43:49;;;;;;;;;9.00;8.75;;;;;6.96;60.57;101283.97;5015536;28;45253;-77
2021/12/03 08:46:30;;;;;;;;;12.25;9.75;;;;;6.98;60.26;101289.22;5020682;28;45752;-78
2021/12/03 08:49:05;;;;;;;;;13.25;7.25;;;;;6.97;60.36;101283.13;5016983;28;45335;-77
2021/12/03 08:51:48;;;;;;;;;10.25;8.50;;;;;6.98;60.48;101287.47;5015880;28;45474;-77
2021/12/03 08:54:59;;;;;;;;;10.75;10.75;;;;;7.02;59.99;101282.19;5008448;28;47400;-77
2021/12/03 08:56:59;;;;;;;;;10.00;7.50;;;;;7.03;59.73;101294.41;5019742;28;45458;-77
2021/12/03 08:59:24;;;;;;;;;9.00;7.00;;;;;7.07;59.90;101298.72;5020664;28;45417;-77
2021/12/03 09:01:50;;;;;;;;;10.75;9.00;;;;;7.07;60.19;101301.31;5015613;28;45308;-77
2021/12/03 09:04:16;;;;;;;;;11.50;11.25;;;;;7.06;59.89;101297.00;5017718;28;45975;-77
2021/12/03 09:06:42;;;;;;;;;8.25;6.75;;;;;7.07;59.61;101290.88;5007907;28;48038;-77
2021/12/03 09:09:08;;;;;;;;;11.75;11.50;;;;;7.09;60.11;101289.09;5020172;28;45306;-77
2021/12/03 09:11:35;;;;;;;;;10.50;9.25;;;;;7.12;59.71;101298.66;5020020;28;45323;-75
2021/12/03 09:14:05;;;;;;;;;8.00;7.75;;;;;7.12;59.19;101296.91;5014269;28;45503;-76
2021/12/03 09:16:30;;;;;;;;;8.75;8.75;;;;;7.12;59.76;101286.47;5019703;28;45316;-75
2021/12/03 09:18:57;;;;;;;;;10.75;9.00;;;;;7.15;58.89;101285.56;5004415;28;45716;-75
2021/12/03 09:21:31;;;;;;;;;9.25;7.50;;;;;7.08;59.47;101283.03;5018476;28;45217;-75
2021/12/03 09:24:10;;;;;;;;;8.75;8.75;;;;;7.06;59.40;101281.31;5015306;28;46242;-75
2021/12/03 09:26:39;;;;;;;;;9.25;8.00;;;;;7.08;59.37;101275.19;5010826;28;47457;-77
2021/12/03 09:29:11;;;;;;;;;10.00;9.00;;;;;7.09;59.56;101279.50;5013708;28;45544;-76
2021/12/03 09:31:40;;;;;;;;;9.50;7.00;;;;;7.06;59.96;101266.47;5013634;28;46440;-76
2021/12/03 09:34:09;;;;;;;;;9.25;9.00;;;;;7.09;60.24;101263.81;5015998;28;45351;-76
2021/12/03 09:36:36;;;;;;;;;6.75;6.75;;;;;7.13;59.93;101264.69;5014206;28;45464;-76
2021/12/03 09:39:04;;;;;;;;;11.25;9.75;;;;;7.14;59.40;101258.56;5017557;28;45521;-76
2021/12/03 09:41:29;;;;;;;;;10.50;7.00;;;;;7.13;59.71;101259.44;5010404;28;45474;-76
2021/12/03 09:43:55;;;;;;;;;6.25;5.50;;;;;7.16;59.79;101254.16;5028324;28;46066;-76
2021/12/03 09:51:32;;;;;;;;;11.75;7.00;;;;;7.20;60.05;101240.19;5018128;28;45317;-76
2021/12/03 09:56:38;;;;;;;;;6.75;6.00;;;;;7.20;60.63;101234.09;5007112;28;46032;-76
2021/12/03 09:59:37;;;;;;;;;8.25;5.75;;;;;7.24;60.28;101234.91;5007118;28;45486;-76
2021/12/03 10:04:50;;;;;;;;;11.50;11.50;;;;;7.26;59.11;101239.25;5010997;28;45720;-76
2021/12/03 10:32:22;;;;;;;;;11.25;7.25;;;;;6.97;61.78;101211.66;5019314;28;45239;-77
2021/12/03 10:46:02;;;;;;;;;10.25;9.50;;;;;6.90;62.67;101178.66;5010568;28;45336;-77
2021/12/03 10:51:47;;;;;;;;;7.25;7.25;;;;;6.92;62.89;101161.19;5013564;28;45694;-77
2021/12/03 10:54:15;;;;;;;;;9.25;6.00;;;;;6.97;63.03;101155.03;5005072;28;45336;-77
2021/12/03 11:29:29;;;;;;;;;11.25;7.75;;;;;6.68;65.22;101103.09;5022027;28;45257;-76
2021/12/03 14:00:09;;;;;;;;;3.50;3.50;;;;;6.59;68.56;100807.16;5035864;28;45456;-78
2021/12/03 14:34:36;;;;;;;;;4.00;2.00;;;;;6.67;69.65;100764.41;5005535;28;45266;-77
2021/12/03 14:38:41;;;;;;;;;5.50;4.25;;;;;6.69;69.83;100733.91;5020263;28;45323;-77
2021/12/03 14:41:26;;;;;;;;;4.50;4.50;;;;;6.68;69.68;100729.56;5019542;28;45800;-78
2021/12/03 14:44:14;;;;;;;;;4.00;4.00;;;;;6.67;69.24;100735.69;5017030;28;46363;-78
2021/12/03 14:49:36;;;;;;;;;4.25;4.25;;;;;6.73;70.05;100722.50;5019921;28;45666;-77
2021/12/03 14:54:49;;;;;;;;;5.00;5.00;;;;;6.79;69.27;100722.38;5013157;28;46169;-77
2021/12/03 15:08:25;;;;;;;;;4.00;4.00;;;;;6.75;69.90;100677.19;5019152;28;45784;-78
2021/12/03 15:34:44;;;;;;;;;5.00;5.00;;;;;6.87;70.56;100664.78;5017930;28;45386;-80
2021/12/03 15:40:16;;;;;;;;;6.00;4.50;;;;;6.89;70.03;100654.31;5020702;28;45466;-80
2021/12/03 16:04:25;;;;;;;;;7.00;6.00;;;;;7.02;70.69;100628.78;5015675;28;45434;-78
2021/12/03 16:10:24;;;;;;;;;9.25;7.25;;;;;7.04;70.03;100616.53;5005071;28;45927;-78
2021/12/03 16:17:38;;;;;;;;;5.50;4.75;;;;;7.10;69.89;100600.75;5020952;28;45299;-80
2021/12/03 16:22:50;;;;;;;;;8.50;8.50;;;;;7.17;70.31;100591.88;5015971;28;45296;-79
2021/12/03 16:52:38;;;;;;;;;8.50;6.25;;;;;7.49;69.70;100536.28;5020485;28;45221;-79
2021/12/03 16:55:04;;;;;;;;;6.00;6.00;;;;;7.48;69.96;100531.97;5015850;28;45497;-80
2021/12/03 16:57:35;;;;;;;;;6.00;6.00;;;;;7.49;70.17;100517.97;5008082;28;45393;-78
2021/12/03 17:00:21;;;;;;;;;7.00;7.00;;;;;7.53;70.00;100519.66;5013290;28;45454;-77
2021/12/03 17:03:05;;;;;;;;;8.25;5.25;;;;;7.53;69.66;100511.81;5024796;28;48151;-78
2021/12/03 17:48:19;;;;;;;;;20.25;16.25;;;;;7.62;70.33;100446.19;5003274;28;45277;-80
2021/12/03 17:51:04;;;;;;;;;17.00;15.50;;;;;7.63;70.17;100445.25;5013315;28;45210;-80
2021/12/03 17:56:10;;;;;;;;;18.75;13.75;;;;;7.69;69.90;100443.38;5010147;28;46155;-80
2021/12/03 17:59:24;;;;;;;;;13.00;10.75;;;;;7.70;69.93;100437.28;5015171;28;45971;-80
2021/12/03 18:01:45;;;;;;;;;11.50;11.50;;;;;7.70;70.02;100432.91;5010195;28;45449;-80
2021/12/03 18:05:05;;;;;;;;;21.50;13.50;;;;;7.72;69.90;100422.38;5018449;28;45593;-80
2021/12/03 18:07:09;;;;;;;;;14.75;13.75;;;;;7.73;70.00;100406.63;5018819;28;45479;-82
2021/12/03 18:54:55;;;;;;;;;12.00;12.00;;;;;7.94;70.13;100318.00;5019189;28;45322;-80
2021/12/03 18:57:26;;;;;;;;;12.25;11.75;;;;;7.96;70.11;100317.94;5010779;28;45930;-80
2021/12/03 19:00:13;;;;;;;;;13.75;12.75;;;;;7.99;70.60;100313.50;5012299;28;46226;-80
2021/12/03 19:02:43;;;;;;;;;15.25;11.75;;;;;8.02;70.32;100309.94;5009972;28;45810;-80
2021/12/03 19:05:32;;;;;;;;;11.00;11.00;;;;;8.04;71.04;100304.63;5013090;28;45528;-80